Time;durP1;ratioP1;P1;durP2;ratioP2;P2;SDS_P1;SDS_P2;PMS_P1;PMS_P2;Temp;Humidity;BMP_temperature;BMP_pressure;BME280_temperature;BME280_humidity;BME280_pressure;Samples;Min_cycle;Max_cycle;Signal;HPM_P1;HPM_P2
2022/02/21 00:02:17;;;;;;;2.45;1.40;;;8.60;99.90;;;;;;5013950;28;20381;-84
2022/02/21 00:04:43;;;;;;;1.63;1.10;;;8.50;99.90;;;;;;5032296;28;20390;-83
2022/02/21 00:07:08;;;;;;;2.03;1.23;;;8.50;99.90;;;;;;5013953;28;20393;-82
2022/02/21 00:09:34;;;;;;;1.20;1.10;;;8.50;99.90;;;;;;5032341;28;20382;-81
2022/02/21 00:12:00;;;;;;;1.02;0.90;;;8.70;99.90;;;;;;5017354;28;20385;-82
2022/02/21 00:14:25;;;;;;;1.60;1.20;;;8.70;99.90;;;;;;5036371;28;20368;-81
2022/02/21 00:16:51;;;;;;;1.87;1.03;;;8.70;99.90;;;;;;5018609;28;20421;-82
2022/02/21 00:19:16;;;;;;;1.13;1.03;;;8.70;99.90;;;;;;5018156;28;20423;-81
2022/02/21 00:21:42;;;;;;;1.40;1.05;;;8.70;99.90;;;;;;5035990;28;20366;-83
2022/02/21 00:24:08;;;;;;;2.10;1.17;;;8.80;99.90;;;;;;5035801;28;20461;-82
2022/02/21 00:26:33;;;;;;;1.27;1.10;;;9.00;99.90;;;;;;5017611;28;20871;-81
2022/02/21 00:29:00;;;;;;;2.20;1.20;;;9.00;99.90;;;;;;5017297;28;20414;-81
2022/02/21 00:31:25;;;;;;;1.55;0.88;;;9.00;99.90;;;;;;5018398;28;20459;-82
2022/02/21 00:33:51;;;;;;;1.70;1.00;;;9.00;99.90;;;;;;5035645;28;20882;-81
2022/02/21 00:36:17;;;;;;;1.33;0.90;;;9.10;99.90;;;;;;5036292;28;20931;-80
2022/02/21 00:38:42;;;;;;;1.10;1.00;;;9.20;99.90;;;;;;5035777;28;20408;-82
2022/02/21 00:41:08;;;;;;;2.70;1.30;;;9.20;99.90;;;;;;5034658;28;20381;-82
2022/02/21 00:43:34;;;;;;;2.07;1.13;;;9.20;99.90;;;;;;5034624;28;20470;-80
2022/02/21 00:46:00;;;;;;;1.60;0.90;;;9.40;99.90;;;;;;5035182;28;20381;-82
2022/02/21 00:48:25;;;;;;;2.20;1.10;;;9.40;99.90;;;;;;5016380;28;20385;-82
2022/02/21 00:50:51;;;;;;;2.93;1.30;;;9.30;99.90;;;;;;5016851;28;20482;-81
2022/02/21 00:53:16;;;;;;;2.00;1.00;;;9.40;99.90;;;;;;5035267;28;20374;-82
2022/02/21 00:55:43;;;;;;;3.38;1.20;;;9.50;99.90;;;;;;5031781;28;20385;-81
2022/02/21 00:58:09;;;;;;;1.80;1.27;;;9.40;99.90;;;;;;5033546;28;20388;-81
2022/02/21 01:00:36;;;;;;;2.80;1.50;;;9.40;99.90;;;;;;5034440;28;20938;-81
2022/02/21 01:03:02;;;;;;;2.17;1.48;;;9.60;99.90;;;;;;5031487;28;20385;-80
2022/02/21 01:05:28;;;;;;;2.22;1.23;;;9.60;99.90;;;;;;5034293;28;20402;-82
2022/02/21 01:07:55;;;;;;;3.55;1.50;;;9.70;99.90;;;;;;5034323;28;20370;-80
2022/02/21 01:10:20;;;;;;;2.90;1.20;;;9.70;99.90;;;;;;5033929;28;20464;-81
2022/02/21 01:12:46;;;;;;;2.37;1.20;;;9.80;99.90;;;;;;5034382;28;20395;-81
2022/02/21 01:15:14;;;;;;;2.40;1.00;;;9.60;99.90;;;;;;5015685;28;20933;-81
2022/02/21 01:17:41;;;;;;;2.75;1.15;;;9.70;99.90;;;;;;5035429;28;20447;-81
2022/02/21 01:20:07;;;;;;;2.42;1.40;;;9.70;99.90;;;;;;5034480;28;20406;-80
2022/02/21 01:22:34;;;;;;;2.57;1.23;;;9.70;99.90;;;;;;5033909;28;21007;-82
2022/02/21 01:25:00;;;;;;;2.00;1.07;;;9.70;99.90;;;;;;5016721;28;20382;-82
2022/02/21 01:27:26;;;;;;;2.60;1.45;;;9.70;99.90;;;;;;5033343;28;20366;-82
2022/02/21 01:29:52;;;;;;;3.57;1.70;;;9.70;99.90;;;;;;5034277;28;20720;-81
2022/02/21 01:32:18;;;;;;;2.67;1.40;;;9.80;99.90;;;;;;5033875;28;20388;-81
2022/02/21 01:34:44;;;;;;;2.80;1.53;;;9.90;99.90;;;;;;5015362;28;20767;-81
2022/02/21 01:37:09;;;;;;;3.40;1.67;;;9.80;99.90;;;;;;5033708;28;20385;-81
2022/02/21 01:39:38;;;;;;;3.40;1.30;;;10.00;99.90;;;;;;5033986;28;20479;-81
2022/02/21 01:42:04;;;;;;;2.97;1.40;;;10.00;99.90;;;;;;5016227;28;20477;-81
2022/02/21 01:44:39;;;;;;;2.07;1.13;;;10.00;99.90;;;;;;5034464;28;20377;-82
2022/02/21 01:47:06;;;;;;;2.60;1.50;;;10.10;99.90;;;;;;5032623;28;20413;-80
2022/02/21 01:49:31;;;;;;;2.40;1.35;;;10.00;99.90;;;;;;5015669;28;20500;-81
2022/02/21 01:51:58;;;;;;;2.00;1.10;;;10.00;99.90;;;;;;5032884;28;20942;-81
2022/02/21 01:54:23;;;;;;;2.53;1.30;;;10.20;99.90;;;;;;5033702;28;20455;-81
2022/02/21 01:56:49;;;;;;;2.10;1.10;;;10.10;99.90;;;;;;5033069;28;20852;-81
2022/02/21 01:59:15;;;;;;;2.67;1.20;;;10.10;99.90;;;;;;5033723;28;20879;-80
2022/02/21 02:01:40;;;;;;;3.67;1.40;;;10.10;99.90;;;;;;5032828;28;20395;-82
2022/02/21 02:04:06;;;;;;;2.33;0.90;;;10.10;99.90;;;;;;5032487;28;20370;-80
2022/02/21 02:06:33;;;;;;;2.53;1.23;;;10.30;99.90;;;;;;5015521;28;20409;-81
2022/02/21 02:08:59;;;;;;;3.42;1.00;;;10.20;99.90;;;;;;5033426;28;20382;-81
2022/02/21 02:11:29;;;;;;;1.88;1.00;;;10.30;99.90;;;;;;5032741;28;20373;-81
2022/02/21 02:13:55;;;;;;;2.33;0.98;;;10.30;99.90;;;;;;5014837;28;20878;-81
2022/02/21 02:16:21;;;;;;;1.40;0.83;;;10.20;99.90;;;;;;5033013;28;20439;-81
2022/02/21 02:18:47;;;;;;;2.42;1.00;;;10.00;99.90;;;;;;5015495;28;20480;-82
2022/02/21 02:21:20;;;;;;;2.00;1.00;;;10.00;99.90;;;;;;5016678;28;20398;-81
2022/02/21 02:23:47;;;;;;;3.28;1.15;;;10.00;99.90;;;;;;5016286;28;20389;-82
2022/02/21 02:26:13;;;;;;;1.42;0.80;;;9.90;99.90;;;;;;5033591;28;20855;-82
2022/02/21 02:28:39;;;;;;;1.48;0.82;;;9.70;99.90;;;;;;5016190;28;20432;-82
2022/02/21 02:31:04;;;;;;;1.05;0.63;;;9.60;99.90;;;;;;5033557;28;20385;-82
2022/02/21 02:33:33;;;;;;;1.33;0.80;;;9.60;99.90;;;;;;5032958;28;20469;-83
2022/02/21 02:36:00;;;;;;;2.33;0.95;;;9.50;99.90;;;;;;5034599;28;20471;-81
2022/02/21 02:38:26;;;;;;;2.08;0.70;;;9.50;99.90;;;;;;5034013;28;20381;-82
2022/02/21 02:40:51;;;;;;;0.70;0.70;;;9.40;99.90;;;;;;5016000;28;20826;-80
2022/02/21 02:43:17;;;;;;;1.80;0.70;;;9.30;99.90;;;;;;5033700;28;20393;-82
2022/02/21 02:45:44;;;;;;;1.50;0.53;;;9.20;99.90;;;;;;5033954;28;20460;-80
2022/02/21 02:48:11;;;;;;;1.95;0.50;;;9.10;99.90;;;;;;5015496;28;20394;-83
2022/02/21 02:50:37;;;;;;;1.13;0.70;;;9.10;99.90;;;;;;5015455;28;20486;-80
2022/02/21 02:53:04;;;;;;;1.70;0.70;;;9.00;99.90;;;;;;5033817;28;21030;-80
2022/02/21 02:55:30;;;;;;;2.65;0.60;;;8.90;99.90;;;;;;5033764;28;20370;-81
2022/02/21 02:57:56;;;;;;;1.08;0.60;;;8.80;99.90;;;;;;5034097;28;20390;-82
2022/02/21 03:00:22;;;;;;;3.00;1.10;;;8.80;99.90;;;;;;5015636;28;20401;-81
2022/02/21 03:02:48;;;;;;;0.82;0.70;;;8.70;99.90;;;;;;5032817;28;20385;-80
2022/02/21 03:05:13;;;;;;;1.40;0.50;;;8.80;99.90;;;;;;5014419;28;20428;-82
2022/02/21 03:07:39;;;;;;;0.80;0.53;;;8.70;99.90;;;;;;5033162;28;20369;-80
2022/02/21 03:10:05;;;;;;;0.63;0.45;;;8.60;99.90;;;;;;5033452;28;20950;-82
2022/02/21 03:12:33;;;;;;;1.13;0.50;;;8.50;99.90;;;;;;5015575;28;20913;-80
2022/02/21 03:14:59;;;;;;;0.45;0.45;;;8.30;99.90;;;;;;5015240;28;20451;-81
2022/02/21 03:17:24;;;;;;;1.95;0.65;;;8.10;99.90;;;;;;5032980;28;20377;-82
2022/02/21 03:19:50;;;;;;;0.70;0.50;;;8.00;99.90;;;;;;5033342;28;20429;-81
2022/02/21 03:22:16;;;;;;;1.55;0.70;;;8.00;99.90;;;;;;5031564;28;20925;-81
2022/02/21 03:24:42;;;;;;;1.30;0.50;;;8.10;99.90;;;;;;5013864;28;20774;-81
2022/02/21 03:27:07;;;;;;;1.10;0.70;;;8.00;99.90;;;;;;5032286;28;20445;-81
2022/02/21 03:29:33;;;;;;;1.10;0.60;;;8.00;99.90;;;;;;5032259;28;20374;-81
2022/02/21 03:31:59;;;;;;;0.90;0.60;;;8.00;99.90;;;;;;5030328;28;20851;-80
2022/02/21 03:34:24;;;;;;;0.90;0.67;;;7.90;99.90;;;;;;5033676;28;20439;-82
2022/02/21 03:36:50;;;;;;;1.00;0.70;;;8.00;99.90;;;;;;5032036;28;20497;-80
2022/02/21 03:39:15;;;;;;;0.98;0.50;;;7.90;99.90;;;;;;5014968;28;20835;-80
2022/02/21 03:41:41;;;;;;;0.80;0.70;;;7.80;99.90;;;;;;5013910;28;20439;-80
2022/02/21 03:44:08;;;;;;;1.88;0.70;;;7.80;99.90;;;;;;5034513;28;20866;-81
2022/02/21 03:46:37;;;;;;;0.52;0.50;;;7.90;99.90;;;;;;5019085;28;20409;-81
2022/02/21 03:49:05;;;;;;;1.17;0.60;;;7.90;99.90;;;;;;5017814;28;20396;-81
2022/02/21 03:51:32;;;;;;;0.85;0.70;;;7.80;99.90;;;;;;5017742;28;20397;-81
2022/02/21 03:53:57;;;;;;;1.20;0.60;;;7.80;99.90;;;;;;5035669;28;20381;-82
2022/02/21 03:56:25;;;;;;;1.20;0.67;;;7.90;99.90;;;;;;5035136;28;20385;-80
2022/02/21 03:58:50;;;;;;;0.75;0.60;;;7.90;99.90;;;;;;5017464;28;20401;-81
2022/02/21 04:01:16;;;;;;;1.00;0.63;;;7.80;99.90;;;;;;5017654;28;20389;-80
2022/02/21 04:03:41;;;;;;;0.77;0.60;;;7.80;99.90;;;;;;5017191;28;20879;-81
2022/02/21 04:06:07;;;;;;;1.48;0.60;;;7.80;99.90;;;;;;5035309;28;20480;-80
2022/02/21 04:08:33;;;;;;;1.73;0.52;;;7.70;99.90;;;;;;5034501;28;20377;-81
2022/02/21 04:10:59;;;;;;;1.40;0.60;;;7.70;99.90;;;;;;5032781;28;20435;-81
2022/02/21 04:13:24;;;;;;;1.03;0.60;;;7.70;99.90;;;;;;5033987;28;20380;-81
2022/02/21 04:15:50;;;;;;;1.45;0.60;;;7.70;99.90;;;;;;5016187;28;20456;-80
2022/02/21 04:18:16;;;;;;;1.67;0.70;;;7.60;99.90;;;;;;5015956;28;20413;-80
2022/02/21 04:20:42;;;;;;;1.08;0.80;;;7.70;99.90;;;;;;5016646;28;20407;-81
2022/02/21 04:23:07;;;;;;;1.00;0.68;;;7.60;99.90;;;;;;5016386;28;20424;-82
2022/02/21 04:25:33;;;;;;;1.07;0.67;;;7.60;99.90;;;;;;5034874;28;20867;-81
2022/02/21 04:27:58;;;;;;;1.40;0.50;;;7.70;99.90;;;;;;5035807;28;20398;-81
2022/02/21 04:30:27;;;;;;;0.65;0.50;;;7.60;99.90;;;;;;5035439;28;20401;-81
2022/02/21 04:32:53;;;;;;;1.83;0.70;;;7.70;99.90;;;;;;5035597;28;20377;-80
2022/02/21 04:35:21;;;;;;;1.05;0.60;;;7.70;99.90;;;;;;5016580;28;20747;-81
2022/02/21 04:37:47;;;;;;;0.60;0.50;;;7.50;99.90;;;;;;5017078;28;20483;-80
2022/02/21 04:40:20;;;;;;;1.07;0.60;;;7.60;99.90;;;;;;5017438;28;20428;-81
2022/02/21 04:42:48;;;;;;;1.33;0.70;;;7.40;99.90;;;;;;5034376;28;20380;-81
2022/02/21 04:45:17;;;;;;;0.60;0.60;;;7.40;99.90;;;;;;5034633;28;20384;-80
2022/02/21 04:47:42;;;;;;;1.15;0.63;;;7.30;99.90;;;;;;5016303;28;20374;-80
2022/02/21 04:50:09;;;;;;;2.50;0.80;;;7.20;99.90;;;;;;5034926;28;20528;-81
2022/02/21 04:52:37;;;;;;;2.00;1.00;;;7.10;99.90;;;;;;5034465;28;20394;-80
2022/02/21 04:55:04;;;;;;;1.60;0.88;;;6.90;99.90;;;;;;5015936;28;20397;-81
2022/02/21 04:57:30;;;;;;;2.92;1.20;;;6.80;99.90;;;;;;5016384;28;20421;-81
2022/02/21 04:59:55;;;;;;;5.13;1.40;;;6.80;99.90;;;;;;5034940;28;20433;-80
2022/02/21 05:02:21;;;;;;;4.90;1.50;;;6.60;99.90;;;;;;5035193;28;20370;-80
2022/02/21 05:04:46;;;;;;;3.55;1.23;;;6.60;99.90;;;;;;5017504;28;20472;-79
2022/02/21 05:07:12;;;;;;;3.95;1.33;;;6.60;99.90;;;;;;5034383;28;20466;-80
2022/02/21 05:09:38;;;;;;;4.70;1.80;;;6.60;99.90;;;;;;5034328;28;20389;-79
2022/02/21 05:12:04;;;;;;;5.83;1.90;;;6.60;99.90;;;;;;5034335;28;20381;-80
2022/02/21 05:14:31;;;;;;;4.22;1.60;;;6.60;99.90;;;;;;5017076;28;20380;-80
2022/02/21 05:16:56;;;;;;;4.60;1.65;;;6.60;99.90;;;;;;5017057;28;20378;-80
2022/02/21 05:19:22;;;;;;;5.43;1.63;;;6.70;99.90;;;;;;5034095;28;20402;-81
2022/02/21 05:21:48;;;;;;;3.53;1.60;;;6.60;99.90;;;;;;5033695;28;20447;-81
2022/02/21 05:24:14;;;;;;;4.60;1.42;;;6.60;99.90;;;;;;5016221;28;20392;-81
2022/02/21 05:26:40;;;;;;;5.57;2.07;;;6.50;99.90;;;;;;5015629;28;20397;-81
2022/02/21 05:29:06;;;;;;;6.33;1.70;;;6.50;99.90;;;;;;5034635;28;20365;-81
2022/02/21 05:31:33;;;;;;;5.07;1.43;;;6.50;99.90;;;;;;5019398;28;20523;-79
2022/02/21 05:33:58;;;;;;;5.10;1.90;;;6.50;99.90;;;;;;5018369;28;20377;-80
2022/02/21 05:36:24;;;;;;;4.57;1.50;;;6.60;99.90;;;;;;5016361;28;20394;-80
2022/02/21 05:38:50;;;;;;;4.45;1.50;;;6.50;99.90;;;;;;5034931;28;20382;-80
2022/02/21 05:41:15;;;;;;;3.60;1.40;;;6.60;99.90;;;;;;5034437;28;20374;-81
2022/02/21 05:43:41;;;;;;;3.87;1.40;;;6.50;99.90;;;;;;5016509;28;20381;-82
2022/02/21 05:46:07;;;;;;;4.93;1.60;;;6.50;99.90;;;;;;5017077;28;20396;-80
2022/02/21 05:48:32;;;;;;;6.37;2.17;;;6.60;99.90;;;;;;5034527;28;20440;-83
2022/02/21 05:50:58;;;;;;;6.10;1.95;;;6.50;99.90;;;;;;5017235;28;20739;-80
2022/02/21 05:53:24;;;;;;;6.13;2.05;;;6.50;99.90;;;;;;5036645;28;20732;-82
2022/02/21 05:55:49;;;;;;;6.18;1.85;;;6.30;99.90;;;;;;5018640;28;20393;-81
2022/02/21 05:58:15;;;;;;;7.17;2.43;;;5.90;99.90;;;;;;5020848;28;20948;-83
2022/02/21 06:00:42;;;;;;;8.70;2.60;;;5.70;99.90;;;;;;5047493;28;20416;-81
2022/02/21 06:03:08;;;;;;;11.05;2.88;;;5.60;99.90;;;;;;5037611;28;20380;-82
2022/02/21 06:05:34;;;;;;;11.88;3.83;;;5.30;99.90;;;;;;5055236;28;20853;-83
2022/02/21 06:08:01;;;;;;;7.53;3.00;;;5.20;99.90;;;;;;5042588;28;20406;-82
2022/02/21 06:10:26;;;;;;;11.65;3.80;;;5.10;99.90;;;;;;5054451;28;20388;-81
2022/02/21 06:12:52;;;;;;;7.20;3.00;;;5.00;99.90;;;;;;5030001;28;20451;-81
2022/02/21 06:15:18;;;;;;;10.03;3.47;;;5.00;99.90;;;;;;5029432;28;20462;-82
2022/02/21 06:17:45;;;;;;;8.50;3.33;;;5.00;99.90;;;;;;5036077;28;20435;-81
2022/02/21 06:20:11;;;;;;;8.32;2.95;;;4.90;99.90;;;;;;5017151;28;20405;-83
2022/02/21 06:22:38;;;;;;;11.18;3.30;;;4.80;99.90;;;;;;5017681;28;20512;-81
2022/02/21 06:25:04;;;;;;;13.23;3.27;;;4.80;99.90;;;;;;5035543;28;20385;-81
2022/02/21 06:27:29;;;;;;;10.05;3.33;;;4.80;99.90;;;;;;5016811;28;20396;-81
2022/02/21 06:29:55;;;;;;;7.00;2.77;;;4.90;99.90;;;;;;5017451;28;20378;-82
2022/02/21 06:32:21;;;;;;;12.37;3.50;;;4.90;99.90;;;;;;5042197;28;20733;-81
2022/02/21 06:34:51;;;;;;;9.27;3.07;;;4.90;99.90;;;;;;5031803;28;20715;-81
2022/02/21 06:37:21;;;;;;;8.80;3.03;;;4.90;99.90;;;;;;5056559;28;20383;-81
2022/02/21 06:39:46;;;;;;;8.93;2.67;;;4.90;99.90;;;;;;5035827;28;20404;-81
2022/02/21 06:42:12;;;;;;;6.87;2.57;;;4.90;99.90;;;;;;5054772;28;20384;-80
2022/02/21 06:44:38;;;;;;;9.60;3.03;;;5.20;99.90;;;;;;5039244;28;20392;-80
2022/02/21 06:47:04;;;;;;;8.60;3.00;;;5.10;99.90;;;;;;5057012;28;20966;-81
2022/02/21 06:49:29;;;;;;;6.80;2.45;;;5.10;99.90;;;;;;5056863;28;20371;-81
2022/02/21 06:51:55;;;;;;;12.43;3.17;;;5.10;99.90;;;;;;5038663;28;20379;-81
2022/02/21 06:54:22;;;;;;;8.32;2.65;;;5.20;99.90;;;;;;5039125;28;20416;-82
2022/02/21 06:56:48;;;;;;;8.80;3.00;;;5.20;99.90;;;;;;5039854;28;20437;-81
2022/02/21 06:59:14;;;;;;;5.75;2.17;;;5.30;99.90;;;;;;5055767;28;20403;-85
2022/02/21 07:01:39;;;;;;;3.45;1.52;;;5.20;99.90;;;;;;5033858;28;20387;-81
2022/02/21 07:04:05;;;;;;;5.80;1.95;;;4.40;99.90;;;;;;5054330;28;20433;-81
2022/02/21 07:06:35;;;;;;;8.73;2.50;;;3.80;99.90;;;;;;5053927;28;20375;-82
2022/02/21 07:09:01;;;;;;;4.45;1.98;;;3.50;99.90;;;;;;5034936;28;20400;-82
2022/02/21 07:11:26;;;;;;;9.33;2.50;;;3.40;99.90;;;;;;5053024;28;20447;-81
2022/02/21 07:13:52;;;;;;;9.83;2.70;;;3.30;99.90;;;;;;5053069;28;20461;-83
2022/02/21 07:16:17;;;;;;;12.17;3.40;;;3.30;99.90;;;;;;5053723;28;20888;-81
2022/02/21 07:18:43;;;;;;;8.63;3.38;;;3.30;99.90;;;;;;5053672;28;20808;-82
2022/02/21 07:21:09;;;;;;;12.40;3.50;;;3.40;99.90;;;;;;5035039;28;20970;-81
2022/02/21 07:23:35;;;;;;;11.70;3.40;;;3.50;99.90;;;;;;5016905;28;20465;-81
2022/02/21 07:26:02;;;;;;;12.77;3.45;;;3.80;99.90;;;;;;5015519;28;20394;-81
2022/02/21 07:28:27;;;;;;;12.20;3.83;;;3.90;99.90;;;;;;5033092;28;20443;-83
2022/02/21 07:30:53;;;;;;;14.13;4.70;;;4.00;99.90;;;;;;5050448;28;20375;-82
2022/02/21 07:33:18;;;;;;;16.10;5.13;;;4.20;99.90;;;;;;5034942;28;20407;-81
2022/02/21 07:35:44;;;;;;;13.77;5.57;;;4.30;99.90;;;;;;5034219;28;20388;-81
2022/02/21 07:38:10;;;;;;;16.95;5.10;;;4.40;99.90;;;;;;5035639;28;20407;-81
2022/02/21 07:40:35;;;;;;;14.32;4.43;;;4.50;99.90;;;;;;5037338;28;20413;-81
2022/02/21 07:43:01;;;;;;;10.17;4.43;;;4.70;99.90;;;;;;5033185;28;20377;-82
2022/02/21 07:45:26;;;;;;;16.53;4.13;;;4.70;99.90;;;;;;5033214;28;20404;-82
2022/02/21 07:47:57;;;;;;;13.80;3.90;;;4.80;99.90;;;;;;5033391;28;20370;-82
2022/02/21 07:50:24;;;;;;;15.75;4.30;;;4.80;99.90;;;;;;5052209;28;20400;-81
2022/02/21 07:52:51;;;;;;;12.70;4.07;;;5.00;99.90;;;;;;5053024;28;20535;-81
2022/02/21 07:55:18;;;;;;;13.13;4.18;;;4.90;99.90;;;;;;5036624;28;20419;-82
2022/02/21 07:57:45;;;;;;;15.52;4.03;;;4.80;99.90;;;;;;5016370;28;20388;-81
2022/02/21 08:00:13;;;;;;;12.60;4.20;;;4.90;99.90;;;;;;5035566;28;20409;-82
2022/02/21 08:02:40;;;;;;;11.43;3.50;;;4.90;99.90;;;;;;5035336;28;20466;-81
2022/02/21 08:05:06;;;;;;;8.87;3.60;;;5.00;99.90;;;;;;5025872;28;20409;-82
2022/02/21 08:07:32;;;;;;;6.97;2.90;;;5.20;99.90;;;;;;5033289;28;20429;-82
2022/02/21 08:09:58;;;;;;;10.88;3.08;;;5.30;99.90;;;;;;5032647;28;20389;-82
2022/02/21 08:12:24;;;;;;;7.68;2.83;;;5.40;99.90;;;;;;5007476;28;20386;-82
2022/02/21 08:14:49;;;;;;;8.93;2.88;;;5.30;99.90;;;;;;5015527;28;20427;-81
2022/02/21 08:17:16;;;;;;;10.35;3.17;;;5.30;99.90;;;;;;5014001;28;20431;-81
2022/02/21 08:19:42;;;;;;;8.75;2.70;;;5.50;99.90;;;;;;5031990;28;20413;-82
2022/02/21 08:22:08;;;;;;;12.05;3.25;;;5.50;99.90;;;;;;5014648;28;20401;-82
2022/02/21 08:24:35;;;;;;;8.88;3.05;;;5.60;99.90;;;;;;5045484;28;21248;-82
2022/02/21 08:27:02;;;;;;;9.53;3.03;;;5.80;99.90;;;;;;5037438;28;20389;-82
2022/02/21 08:29:28;;;;;;;8.57;3.22;;;5.80;99.90;;;;;;5031127;28;20377;-81
2022/02/21 08:31:56;;;;;;;9.83;3.27;;;5.80;99.90;;;;;;5035133;28;20540;-81
2022/02/21 08:34:22;;;;;;;8.88;3.58;;;5.80;99.90;;;;;;5033377;28;20426;-79
2022/02/21 08:36:48;;;;;;;11.52;3.33;;;5.90;99.90;;;;;;5036924;28;20431;-82
2022/02/21 08:39:14;;;;;;;9.63;3.53;;;5.90;99.90;;;;;;5055605;28;20399;-82
2022/02/21 08:41:41;;;;;;;9.95;3.60;;;5.90;99.90;;;;;;5056138;28;20402;-83
2022/02/21 08:44:07;;;;;;;10.95;3.20;;;5.90;99.90;;;;;;5021399;28;20933;-81
2022/02/21 08:46:33;;;;;;;11.73;3.47;;;5.90;99.90;;;;;;5018020;28;20381;-82
2022/02/21 08:48:58;;;;;;;10.52;3.15;;;5.80;99.90;;;;;;5051161;28;20551;-84
2022/02/21 08:51:28;;;;;;;11.52;3.35;;;5.80;99.90;;;;;;5019310;28;20574;-81
2022/02/21 08:53:54;;;;;;;14.32;4.22;;;5.80;99.90;;;;;;5056035;28;20411;-80
2022/02/21 08:56:20;;;;;;;11.50;3.83;;;5.80;99.90;;;;;;5056791;28;20861;-82
2022/02/21 08:58:45;;;;;;;11.80;4.07;;;5.90;99.90;;;;;;5055767;28;20422;-80
2022/02/21 09:01:11;;;;;;;12.43;3.70;;;5.90;99.90;;;;;;5018996;28;20440;-81
2022/02/21 09:03:37;;;;;;;11.70;3.87;;;6.00;99.90;;;;;;5034088;28;20385;-81
2022/02/21 09:06:03;;;;;;;11.35;3.45;;;6.20;99.90;;;;;;5034877;28;20435;-81
2022/02/21 09:08:31;;;;;;;11.00;3.80;;;6.10;99.90;;;;;;5033852;28;20376;-80
2022/02/21 09:11:02;;;;;;;12.70;4.00;;;6.10;99.90;;;;;;5036370;28;20405;-80
2022/02/21 09:13:28;;;;;;;12.30;3.40;;;6.20;99.90;;;;;;5036680;28;20384;-81
2022/02/21 09:15:53;;;;;;;8.43;3.20;;;6.30;99.90;;;;;;5055104;28;20376;-81
2022/02/21 09:18:19;;;;;;;10.57;3.80;;;6.30;99.90;;;;;;5053416;28;20406;-81
2022/02/21 09:20:45;;;;;;;11.00;3.53;;;6.30;99.90;;;;;;5054545;28;20468;-82
2022/02/21 09:23:10;;;;;;;12.85;3.25;;;6.30;99.90;;;;;;5053999;28;20384;-80
2022/02/21 09:25:36;;;;;;;8.60;3.03;;;6.20;99.90;;;;;;5035783;28;20403;-81
2022/02/21 09:28:02;;;;;;;12.90;3.70;;;6.10;99.90;;;;;;5023914;28;20401;-80
2022/02/21 09:30:28;;;;;;;8.97;3.40;;;6.00;99.90;;;;;;5034855;28;20385;-80
2022/02/21 09:32:53;;;;;;;8.27;3.00;;;6.10;99.90;;;;;;5028090;28;20450;-81
2022/02/21 09:35:20;;;;;;;9.90;3.20;;;6.10;99.90;;;;;;5056274;28;20779;-81
2022/02/21 09:37:46;;;;;;;9.70;3.08;;;6.10;99.90;;;;;;5023367;28;20413;-82
2022/02/21 09:40:13;;;;;;;7.35;2.88;;;6.30;99.90;;;;;;5015913;28;20512;-81
2022/02/21 09:42:39;;;;;;;10.25;3.30;;;6.50;99.90;;;;;;5035224;28;20926;-81
2022/02/21 09:45:07;;;;;;;9.07;3.25;;;6.60;99.90;;;;;;5015851;28;20445;-82
2022/02/21 09:47:34;;;;;;;6.30;3.08;;;6.70;99.90;;;;;;5017113;28;20818;-82
2022/02/21 09:50:02;;;;;;;7.78;2.67;;;6.80;99.90;;;;;;5021288;28;20412;-82
2022/02/21 09:52:29;;;;;;;10.32;3.03;;;6.80;99.90;;;;;;5011705;28;20941;-81
2022/02/21 09:54:56;;;;;;;9.15;2.97;;;6.80;99.90;;;;;;5029217;28;20398;-82
2022/02/21 09:57:23;;;;;;;10.35;3.55;;;6.80;99.90;;;;;;5033456;28;20390;-82
2022/02/21 09:59:49;;;;;;;9.57;3.03;;;6.90;99.90;;;;;;5035243;28;20421;-82
2022/02/21 10:02:21;;;;;;;12.85;3.15;;;6.80;99.90;;;;;;5034667;28;20414;-82
2022/02/21 10:05:11;;;;;;;9.93;2.92;;;6.80;99.90;;;;;;5019687;28;20494;-81
2022/02/21 10:07:40;;;;;;;8.13;3.25;;;6.80;99.90;;;;;;5017462;28;20442;-81
2022/02/21 10:10:08;;;;;;;11.38;3.00;;;6.70;99.90;;;;;;5016284;28;20393;-81
2022/02/21 10:12:45;;;;;;;9.52;3.08;;;6.60;99.90;;;;;;5032422;28;20384;-82
2022/02/21 10:15:31;;;;;;;10.93;3.30;;;6.60;99.90;;;;;;5012597;28;20385;-81
2022/02/21 10:18:16;;;;;;;9.65;3.60;;;6.70;99.90;;;;;;5028674;28;20421;-81
2022/02/21 10:20:59;;;;;;;8.75;3.13;;;7.00;99.90;;;;;;5013260;28;20424;-81
2022/02/21 10:23:30;;;;;;;8.38;3.00;;;7.00;99.90;;;;;;5031283;28;20389;-81
2022/02/21 10:25:58;;;;;;;10.98;3.08;;;7.00;99.90;;;;;;5031360;28;20377;-81
2022/02/21 10:28:30;;;;;;;9.32;2.53;;;6.80;99.90;;;;;;5012939;28;20385;-81
2022/02/21 10:31:09;;;;;;;10.15;3.67;;;6.70;99.90;;;;;;5013602;28;20452;-82
2022/02/21 10:33:34;;;;;;;8.52;3.10;;;6.70;99.90;;;;;;5031327;28;20407;-81
2022/02/21 10:36:00;;;;;;;12.37;3.27;;;6.80;99.90;;;;;;5014036;28;20386;-81
2022/02/21 10:38:40;;;;;;;9.27;3.53;;;6.90;99.90;;;;;;5031220;28;20421;-81
2022/02/21 10:41:07;;;;;;;10.32;3.40;;;6.90;99.90;;;;;;5031595;28;20934;-80
2022/02/21 10:43:34;;;;;;;10.38;3.70;;;6.80;99.90;;;;;;5031526;28;20374;-81
2022/02/21 10:46:14;;;;;;;10.38;3.30;;;6.80;99.90;;;;;;5031174;28;20382;-81
2022/02/21 10:48:44;;;;;;;10.32;3.40;;;6.80;99.90;;;;;;5013658;28;20428;-82
2022/02/21 10:51:11;;;;;;;12.52;3.38;;;6.80;99.90;;;;;;5031453;28;20382;-81
2022/02/21 10:53:49;;;;;;;10.10;3.65;;;6.80;99.90;;;;;;5013815;28;20374;-82
2022/02/21 10:56:17;;;;;;;9.10;2.80;;;6.80;99.90;;;;;;5013788;28;20401;-82
2022/02/21 10:58:42;;;;;;;9.30;3.20;;;7.00;99.90;;;;;;5031622;28;21003;-82
2022/02/21 11:01:10;;;;;;;11.00;3.40;;;7.10;99.90;;;;;;5014324;28;20449;-80
2022/02/21 11:03:36;;;;;;;11.77;3.15;;;7.10;99.90;;;;;;5010383;28;20476;-81
2022/02/21 11:06:04;;;;;;;9.57;3.28;;;7.10;99.90;;;;;;5013619;28;20499;-82
2022/02/21 11:08:31;;;;;;;13.05;3.72;;;7.20;99.90;;;;;;5013687;28;20369;-80
2022/02/21 11:11:01;;;;;;;9.33;3.43;;;7.40;99.90;;;;;;5030479;28;20491;-81
2022/02/21 11:13:30;;;;;;;11.88;3.83;;;7.40;99.90;;;;;;5013262;28;20373;-82
2022/02/21 11:15:56;;;;;;;8.20;3.03;;;7.40;99.90;;;;;;5030598;28;20378;-80
2022/02/21 11:18:22;;;;;;;8.70;3.30;;;7.40;99.90;;;;;;5014746;28;20378;-81
2022/02/21 11:20:49;;;;;;;10.75;3.50;;;7.20;99.90;;;;;;5013832;28;20474;-81
2022/02/21 11:23:14;;;;;;;10.27;3.20;;;7.10;99.90;;;;;;5032942;28;20370;-81
2022/02/21 11:26:01;;;;;;;9.10;3.47;;;7.00;99.90;;;;;;5018580;28;20405;-80
2022/02/21 11:28:42;;;;;;;9.83;2.93;;;6.90;99.90;;;;;;5035978;28;20421;-81
2022/02/21 11:31:08;;;;;;;8.60;3.33;;;6.90;99.90;;;;;;5017106;28;20385;-81
2022/02/21 11:34:09;;;;;;;9.30;3.35;;;6.90;99.90;;;;;;5015347;28;20408;-81
2022/02/21 11:36:49;;;;;;;12.68;3.72;;;6.90;99.90;;;;;;5027508;28;20408;-82
2022/02/21 11:39:22;;;;;;;13.87;4.00;;;6.90;99.90;;;;;;5028509;28;20401;-81
2022/02/21 11:42:04;;;;;;;12.05;3.85;;;6.90;99.90;;;;;;5029350;28;20377;-82
2022/02/21 11:44:54;;;;;;;11.15;3.10;;;7.10;99.90;;;;;;5011070;28;20476;-83
2022/02/21 11:47:39;;;;;;;9.27;3.40;;;7.30;99.90;;;;;;5027965;28;20432;-82
2022/02/21 11:50:26;;;;;;;10.43;3.65;;;7.50;99.90;;;;;;5021082;28;20871;-81
2022/02/21 11:53:19;;;;;;;10.32;3.40;;;7.50;99.90;;;;;;5029097;28;20382;-82
2022/02/21 11:55:45;;;;;;;11.02;3.17;;;7.70;99.90;;;;;;5027997;28;21054;-82
2022/02/21 11:58:13;;;;;;;9.77;3.05;;;7.60;99.90;;;;;;5028196;28;20500;-82
2022/02/21 12:00:41;;;;;;;8.80;3.38;;;7.50;99.90;;;;;;5030418;28;20405;-81
2022/02/21 12:03:22;;;;;;;13.93;3.28;;;7.50;99.90;;;;;;5012695;28;20392;-82
2022/02/21 12:05:48;;;;;;;7.90;3.20;;;7.50;99.90;;;;;;5029548;28;20398;-82
2022/02/21 12:08:20;;;;;;;8.00;3.10;;;7.40;99.90;;;;;;5016094;28;20397;-81
2022/02/21 12:11:04;;;;;;;12.60;3.63;;;7.40;99.90;;;;;;5036720;28;20403;-80
2022/02/21 12:13:35;;;;;;;8.50;2.90;;;7.30;99.90;;;;;;5035031;28;20403;-82
2022/02/21 12:16:10;;;;;;;10.07;2.70;;;7.30;99.90;;;;;;5015990;28;20573;-81
2022/02/21 12:18:41;;;;;;;7.50;3.15;;;7.20;99.90;;;;;;5016190;28;20397;-82
2022/02/21 12:21:28;;;;;;;10.43;3.55;;;7.20;99.90;;;;;;5017887;28;20417;-83
2022/02/21 12:24:06;;;;;;;10.55;3.70;;;7.10;99.90;;;;;;5044287;28;20407;-83
2022/02/21 12:27:12;;;;;;;11.05;3.40;;;7.20;99.90;;;;;;5031842;28;20907;-85
2022/02/21 12:29:39;;;;;;;9.02;3.28;;;7.10;99.90;;;;;;5047500;28;20428;-82
2022/02/21 12:32:11;;;;;;;9.85;3.47;;;7.00;99.90;;;;;;5007504;28;20935;-82
2022/02/21 12:34:55;;;;;;;10.93;3.97;;;7.00;99.90;;;;;;5008643;28;20497;-83
2022/02/21 12:37:20;;;;;;;11.52;3.60;;;7.00;99.90;;;;;;5041023;28;20406;-82
2022/02/21 12:39:46;;;;;;;11.60;3.20;;;7.10;99.90;;;;;;5023638;28;20746;-82
2022/02/21 12:42:21;;;;;;;9.50;3.53;;;7.20;99.90;;;;;;5014357;28;20886;-84
2022/02/21 12:44:47;;;;;;;8.27;3.35;;;7.30;99.90;;;;;;5034345;28;20391;-83
2022/02/21 12:47:13;;;;;;;10.45;3.40;;;7.30;99.90;;;;;;5027045;28;20875;-81
2022/02/21 12:49:47;;;;;;;10.15;3.60;;;7.40;99.90;;;;;;5004859;28;20488;-82
2022/02/21 12:52:14;;;;;;;9.45;3.45;;;7.20;99.90;;;;;;4994286;28;20931;-83
2022/02/21 12:54:55;;;;;;;10.90;3.20;;;7.00;99.90;;;;;;5049835;28;20382;-82
2022/02/21 12:57:23;;;;;;;10.75;3.78;;;6.90;99.90;;;;;;5019350;28;20429;-81